AYPY/POM METAR and TAF weather

Enter ICAO airport designator
Station Type Date Time Source
AYPY METAR 2021/10/22 18:00 UTC NOAA

AYPY 221800Z 32008KT 9999 FEW050 25/24 Q1010


Station Type Date Time Source
AYPY Decoded METAR 2021/10/22 18:00 UTC NOAA

Moresby, Papua New Guinea (AYPY) 09-26S 147-13E 49M
Oct 22, 2021 - 02:00 PM EDT / 2021.10.22 1800 UTC
Wind: from the NW (320 degrees) at 9 MPH (8 KT):0
Visibility: greater than 7 mile(s):0
Sky conditions: mostly clear
Temperature: 77 F (25 C)
Dew Point: 75 F (24 C)
Relative Humidity: 94%
Pressure (altimeter): 29.83 in. Hg (1010 hPa)
ob: AYPY 221800Z 32008KT 9999 FEW050 25/24 Q1010
cycle: 18

Station Type Date Time Source
AYPY TAF 2021/10/22 18:21 UTC NOAA

TAF TAF AYPY 221500Z 2218/2318 VRB03KT 9999 SCT040 BBKN140
FM222200 35007KT 9999 SCT018 SCT140
FM230200 19010KT 9999 -DZ SCT030 BKN130
FM230600 17010KT 9999 SCT018 BKN130 PROB30 219/2221 00000KT 0600 FG

Example: see airport list